sensor_id;sensor_type;location;lat;lon;timestamp;pressure;altitude;pressure_sealevel;temperature;humidity
64368;BME280;50692;53.314;-6.300;2023-07-31T00:01:34;99845.97;;;18.11;97.67
64368;BME280;50692;53.314;-6.300;2023-07-31T00:04:20;99844.84;;;18.13;97.43
64368;BME280;50692;53.314;-6.300;2023-07-31T00:07:06;99842.50;;;18.01;98.14
64368;BME280;50692;53.314;-6.300;2023-07-31T00:09:52;99845.34;;;17.99;97.81
64368;BME280;50692;53.314;-6.300;2023-07-31T00:12:40;99832.75;;;17.91;97.49
64368;BME280;50692;53.314;-6.300;2023-07-31T00:15:26;99851.53;;;18.00;97.23
64368;BME280;50692;53.314;-6.300;2023-07-31T00:18:12;99831.69;;;18.02;96.63
64368;BME280;50692;53.314;-6.300;2023-07-31T00:20:58;99828.19;;;18.02;96.26
64368;BME280;50692;53.314;-6.300;2023-07-31T00:23:44;99825.09;;;17.96;95.88
64368;BME280;50692;53.314;-6.300;2023-07-31T00:26:30;99826.94;;;17.96;95.77
64368;BME280;50692;53.314;-6.300;2023-07-31T00:29:16;99827.31;;;18.01;95.44
64368;BME280;50692;53.314;-6.300;2023-07-31T00:32:02;99821.97;;;18.01;95.15
64368;BME280;50692;53.314;-6.300;2023-07-31T00:34:47;99822.41;;;17.96;95.13
64368;BME280;50692;53.314;-6.300;2023-07-31T00:37:33;99830.59;;;17.95;94.79
64368;BME280;50692;53.314;-6.300;2023-07-31T00:40:20;99825.94;;;17.97;94.68
64368;BME280;50692;53.314;-6.300;2023-07-31T00:43:06;99818.75;;;17.97;94.54
64368;BME280;50692;53.314;-6.300;2023-07-31T00:45:52;99815.22;;;17.97;94.34
64368;BME280;50692;53.314;-6.300;2023-07-31T00:48:38;99807.22;;;17.97;94.18
64368;BME280;50692;53.314;-6.300;2023-07-31T00:51:25;99809.88;;;17.97;93.99
64368;BME280;50692;53.314;-6.300;2023-07-31T00:54:11;99813.03;;;18.10;93.33
64368;BME280;50692;53.314;-6.300;2023-07-31T00:56:57;99815.00;;;18.08;92.90
64368;BME280;50692;53.314;-6.300;2023-07-31T00:59:43;99822.06;;;18.09;92.59
64368;BME280;50692;53.314;-6.300;2023-07-31T01:02:29;99821.44;;;18.15;92.47
64368;BME280;50692;53.314;-6.300;2023-07-31T01:05:15;99808.94;;;18.16;92.78
64368;BME280;50692;53.314;-6.300;2023-07-31T01:08:41;99819.16;;;18.03;94.40
64368;BME280;50692;53.314;-6.300;2023-07-31T01:11:21;99829.31;;;17.99;94.67
64368;BME280;50692;53.314;-6.300;2023-07-31T01:14:11;99830.91;;;17.92;94.49
64368;BME280;50692;53.314;-6.300;2023-07-31T01:16:56;99823.88;;;17.91;94.69
64368;BME280;50692;53.314;-6.300;2023-07-31T01:19:42;99786.81;;;17.68;94.36
64368;BME280;50692;53.314;-6.300;2023-07-31T01:29:08;99816.69;;;17.91;94.65
64368;BME280;50692;53.314;-6.300;2023-07-31T01:31:56;99802.69;;;17.80;95.07
64368;BME280;50692;53.314;-6.300;2023-07-31T01:34:44;99794.13;;;17.76;95.59
64368;BME280;50692;53.314;-6.300;2023-07-31T01:37:31;99799.16;;;17.79;96.16
64368;BME280;50692;53.314;-6.300;2023-07-31T01:40:17;99796.66;;;17.78;96.34
64368;BME280;50692;53.314;-6.300;2023-07-31T01:43:02;99791.44;;;17.76;96.51
64368;BME280;50692;53.314;-6.300;2023-07-31T01:45:48;99792.56;;;17.73;96.80
64368;BME280;50692;53.314;-6.300;2023-07-31T01:48:34;99801.72;;;17.71;97.29
64368;BME280;50692;53.314;-6.300;2023-07-31T01:51:22;99810.03;;;17.68;97.67
64368;BME280;50692;53.314;-6.300;2023-07-31T01:54:08;99812.16;;;17.64;98.06
64368;BME280;50692;53.314;-6.300;2023-07-31T01:56:53;99814.28;;;17.61;98.00
64368;BME280;50692;53.314;-6.300;2023-07-31T01:59:39;99808.28;;;17.59;98.10
64368;BME280;50692;53.314;-6.300;2023-07-31T02:02:25;99808.09;;;17.60;98.15
64368;BME280;50692;53.314;-6.300;2023-07-31T02:05:11;99811.22;;;17.56;98.27
64368;BME280;50692;53.314;-6.300;2023-07-31T02:07:57;99821.19;;;17.63;97.97
64368;BME280;50692;53.314;-6.300;2023-07-31T02:10:43;99815.97;;;17.62;97.68
64368;BME280;50692;53.314;-6.300;2023-07-31T02:13:29;99817.50;;;17.64;97.68
64368;BME280;50692;53.314;-6.300;2023-07-31T02:16:14;99822.84;;;17.64;97.59
64368;BME280;50692;53.314;-6.300;2023-07-31T02:19:00;99824.22;;;17.68;97.68
64368;BME280;50692;53.314;-6.300;2023-07-31T02:21:46;99823.84;;;17.63;97.40
64368;BME280;50692;53.314;-6.300;2023-07-31T02:24:32;99825.38;;;17.66;97.22
64368;BME280;50692;53.314;-6.300;2023-07-31T02:27:18;99822.72;;;17.66;96.84
64368;BME280;50692;53.314;-6.300;2023-07-31T02:30:04;99810.88;;;17.68;96.11
64368;BME280;50692;53.314;-6.300;2023-07-31T02:32:50;99815.63;;;17.84;95.44
64368;BME280;50692;53.314;-6.300;2023-07-31T02:35:35;99816.91;;;17.70;95.64
64368;BME280;50692;53.314;-6.300;2023-07-31T02:38:21;99815.25;;;17.69;95.40
64368;BME280;50692;53.314;-6.300;2023-07-31T02:41:07;99816.38;;;17.77;95.02
64368;BME280;50692;53.314;-6.300;2023-07-31T02:43:53;99808.91;;;17.70;95.17
64368;BME280;50692;53.314;-6.300;2023-07-31T02:46:39;99809.91;;;17.69;95.11
64368;BME280;50692;53.314;-6.300;2023-07-31T02:49:24;99808.03;;;17.80;94.33
64368;BME280;50692;53.314;-6.300;2023-07-31T02:52:10;99814.09;;;17.72;94.63
64368;BME280;50692;53.314;-6.300;2023-07-31T02:54:57;99817.34;;;17.76;94.33
64368;BME280;50692;53.314;-6.300;2023-07-31T02:57:43;99809.44;;;17.74;94.12
64368;BME280;50692;53.314;-6.300;2023-07-31T03:00:29;99806.34;;;17.79;93.91
64368;BME280;50692;53.314;-6.300;2023-07-31T03:03:14;99800.59;;;17.73;94.27
64368;BME280;50692;53.314;-6.300;2023-07-31T03:06:00;99792.03;;;17.70;94.27
64368;BME280;50692;53.314;-6.300;2023-07-31T03:08:46;99804.66;;;17.78;94.40
64368;BME280;50692;53.314;-6.300;2023-07-31T03:11:32;99817.03;;;17.79;94.21
64368;BME280;50692;53.314;-6.300;2023-07-31T03:14:17;99802.25;;;17.74;94.16
64368;BME280;50692;53.314;-6.300;2023-07-31T03:17:04;99802.13;;;17.76;94.30
64368;BME280;50692;53.314;-6.300;2023-07-31T03:19:49;99809.31;;;17.76;94.24
64368;BME280;50692;53.314;-6.300;2023-07-31T03:22:35;99793.28;;;17.76;94.33
64368;BME280;50692;53.314;-6.300;2023-07-31T03:25:21;99758.22;;;17.51;94.32
64368;BME280;50692;53.314;-6.300;2023-07-31T03:28:07;99793.97;;;17.78;94.31
64368;BME280;50692;53.314;-6.300;2023-07-31T03:30:53;99789.47;;;17.78;94.16
64368;BME280;50692;53.314;-6.300;2023-07-31T03:33:39;99785.13;;;17.77;94.08
64368;BME280;50692;53.314;-6.300;2023-07-31T03:36:24;99787.22;;;17.73;94.22
64368;BME280;50692;53.314;-6.300;2023-07-31T03:39:11;99786.53;;;17.71;94.21
64368;BME280;50692;53.314;-6.300;2023-07-31T03:41:57;99795.81;;;17.77;94.12
64368;BME280;50692;53.314;-6.300;2023-07-31T03:44:43;99796.91;;;17.74;94.30
64368;BME280;50692;53.314;-6.300;2023-07-31T03:47:28;99784.22;;;17.59;95.03
64368;BME280;50692;53.314;-6.300;2023-07-31T03:50:14;99770.06;;;17.76;93.70
64368;BME280;50692;53.314;-6.300;2023-07-31T03:53:00;99768.47;;;17.83;93.55
64368;BME280;50692;53.314;-6.300;2023-07-31T03:55:46;99770.59;;;17.80;93.55
64368;BME280;50692;53.314;-6.300;2023-07-31T03:58:32;99765.41;;;17.78;93.27
64368;BME280;50692;53.314;-6.300;2023-07-31T04:01:19;99787.03;;;17.85;93.22
64368;BME280;50692;53.314;-6.300;2023-07-31T04:04:05;99782.84;;;17.82;93.33
64368;BME280;50692;53.314;-6.300;2023-07-31T04:06:51;99777.25;;;17.76;93.65
64368;BME280;50692;53.314;-6.300;2023-07-31T04:09:37;99780.88;;;17.74;93.63
64368;BME280;50692;53.314;-6.300;2023-07-31T04:12:23;99771.59;;;17.79;93.24
64368;BME280;50692;53.314;-6.300;2023-07-31T04:15:09;99770.06;;;17.76;93.19
64368;BME280;50692;53.314;-6.300;2023-07-31T04:17:55;99786.09;;;17.76;93.35
64368;BME280;50692;53.314;-6.300;2023-07-31T04:20:40;99794.81;;;17.78;93.42
64368;BME280;50692;53.314;-6.300;2023-07-31T04:23:26;99796.34;;;17.81;93.11
64368;BME280;50692;53.314;-6.300;2023-07-31T04:26:12;99806.34;;;17.79;93.38
64368;BME280;50692;53.314;-6.300;2023-07-31T04:28:58;99816.63;;;17.73;93.63
64368;BME280;50692;53.314;-6.300;2023-07-31T04:31:44;99808.34;;;17.77;93.53
64368;BME280;50692;53.314;-6.300;2023-07-31T04:34:30;99790.88;;;17.72;93.40
64368;BME280;50692;53.314;-6.300;2023-07-31T04:37:15;99784.28;;;17.77;93.34
64368;BME280;50692;53.314;-6.300;2023-07-31T04:40:01;99795.09;;;17.75;93.38
64368;BME280;50692;53.314;-6.300;2023-07-31T04:42:47;99798.88;;;17.72;93.77
64368;BME280;50692;53.314;-6.300;2023-07-31T04:45:33;99796.84;;;17.66;93.96
64368;BME280;50692;53.314;-6.300;2023-07-31T04:48:19;99787.97;;;17.66;94.02
64368;BME280;50692;53.314;-6.300;2023-07-31T04:51:05;99790.94;;;17.63;94.18
64368;BME280;50692;53.314;-6.300;2023-07-31T04:53:50;99767.47;;;17.57;94.17
64368;BME280;50692;53.314;-6.300;2023-07-31T04:56:36;99771.00;;;17.57;94.10
64368;BME280;50692;53.314;-6.300;2023-07-31T04:59:22;99790.78;;;17.64;94.24
64368;BME280;50692;53.314;-6.300;2023-07-31T05:02:08;99797.97;;;17.64;94.25
64368;BME280;50692;53.314;-6.300;2023-07-31T05:04:54;99805.97;;;17.64;94.10
64368;BME280;50692;53.314;-6.300;2023-07-31T05:07:40;99818.50;;;17.63;94.08
64368;BME280;50692;53.314;-6.300;2023-07-31T05:10:26;99816.97;;;17.61;93.98
64368;BME280;50692;53.314;-6.300;2023-07-31T05:13:12;99816.84;;;17.62;93.78
64368;BME280;50692;53.314;-6.300;2023-07-31T05:15:57;99816.13;;;17.60;93.36
64368;BME280;50692;53.314;-6.300;2023-07-31T05:18:43;99816.50;;;17.65;93.36
64368;BME280;50692;53.314;-6.300;2023-07-31T05:21:29;99811.53;;;17.53;93.36
64368;BME280;50692;53.314;-6.300;2023-07-31T05:24:15;99821.50;;;17.50;93.84
64368;BME280;50692;53.314;-6.300;2023-07-31T05:27:00;99816.44;;;17.47;94.00
64368;BME280;50692;53.314;-6.300;2023-07-31T05:29:46;99821.13;;;17.45;94.36
64368;BME280;50692;53.314;-6.300;2023-07-31T05:32:33;99815.91;;;17.44;94.41
64368;BME280;50692;53.314;-6.300;2023-07-31T05:35:19;99807.22;;;17.42;94.71
64368;BME280;50692;53.314;-6.300;2023-07-31T05:38:04;99802.16;;;17.39;95.08
64368;BME280;50692;53.314;-6.300;2023-07-31T05:40:50;99811.47;;;17.35;95.51
64368;BME280;50692;53.314;-6.300;2023-07-31T05:43:36;99801.63;;;17.25;96.38
64368;BME280;50692;53.314;-6.300;2023-07-31T05:46:22;99804.31;;;17.25;96.37
64368;BME280;50692;53.314;-6.300;2023-07-31T05:49:07;99804.59;;;17.22;96.94
64368;BME280;50692;53.314;-6.300;2023-07-31T05:51:53;99802.47;;;17.26;97.02
64368;BME280;50692;53.314;-6.300;2023-07-31T05:54:39;99807.13;;;17.34;96.62
64368;BME280;50692;53.314;-6.300;2023-07-31T05:57:25;99810.25;;;17.19;97.57
64368;BME280;50692;53.314;-6.300;2023-07-31T06:00:11;99806.88;;;17.17;97.83
64368;BME280;50692;53.314;-6.300;2023-07-31T06:02:57;99794.94;;;17.12;97.73
64368;BME280;50692;53.314;-6.300;2023-07-31T06:05:43;99795.81;;;17.12;97.38
64368;BME280;50692;53.314;-6.300;2023-07-31T06:08:29;99783.28;;;17.13;97.54
64368;BME280;50692;53.314;-6.300;2023-07-31T06:11:15;99776.97;;;17.14;97.69
64368;BME280;50692;53.314;-6.300;2023-07-31T06:14:00;99767.00;;;17.06;97.41
64368;BME280;50692;53.314;-6.300;2023-07-31T06:16:46;99773.91;;;17.09;97.52
64368;BME280;50692;53.314;-6.300;2023-07-31T06:19:32;99766.19;;;17.06;97.44
64368;BME280;50692;53.314;-6.300;2023-07-31T06:22:18;99766.56;;;17.11;96.71
64368;BME280;50692;53.314;-6.300;2023-07-31T06:25:04;99769.66;;;17.16;96.20
64368;BME280;50692;53.314;-6.300;2023-07-31T06:27:50;99758.25;;;17.14;95.56
64368;BME280;50692;53.314;-6.300;2023-07-31T06:30:35;99750.81;;;17.17;95.15
64368;BME280;50692;53.314;-6.300;2023-07-31T06:33:21;99747.97;;;17.19;95.11
64368;BME280;50692;53.314;-6.300;2023-07-31T06:36:07;99759.53;;;17.19;94.75
64368;BME280;50692;53.314;-6.300;2023-07-31T06:38:53;99756.16;;;17.17;94.29
64368;BME280;50692;53.314;-6.300;2023-07-31T06:41:39;99762.03;;;17.21;93.98
64368;BME280;50692;53.314;-6.300;2023-07-31T06:44:26;99770.59;;;17.24;93.65
64368;BME280;50692;53.314;-6.300;2023-07-31T06:47:11;99773.25;;;17.24;93.33
64368;BME280;50692;53.314;-6.300;2023-07-31T06:49:57;99785.22;;;17.20;93.27
64368;BME280;50692;53.314;-6.300;2023-07-31T06:52:43;99781.56;;;17.21;92.89
64368;BME280;50692;53.314;-6.300;2023-07-31T06:55:29;99783.09;;;17.24;92.73
64368;BME280;50692;53.314;-6.300;2023-07-31T06:58:14;99793.34;;;17.29;92.23
64368;BME280;50692;53.314;-6.300;2023-07-31T07:01:00;99774.34;;;17.32;92.19
64368;BME280;50692;53.314;-6.300;2023-07-31T07:03:46;99772.88;;;17.19;92.20
64368;BME280;50692;53.314;-6.300;2023-07-31T07:06:32;99767.53;;;17.19;92.35
64368;BME280;50692;53.314;-6.300;2023-07-31T07:09:18;99748.28;;;17.16;92.49
64368;BME280;50692;53.314;-6.300;2023-07-31T07:12:05;99755.97;;;17.19;92.04
64368;BME280;50692;53.314;-6.300;2023-07-31T07:14:51;99755.16;;;17.18;92.01
64368;BME280;50692;53.314;-6.300;2023-07-31T07:17:38;99740.28;;;17.16;91.79
64368;BME280;50692;53.314;-6.300;2023-07-31T07:20:24;99758.53;;;17.20;91.99
64368;BME280;50692;53.314;-6.300;2023-07-31T07:23:10;99765.09;;;17.26;91.92
64368;BME280;50692;53.314;-6.300;2023-07-31T07:25:55;99772.13;;;17.27;91.50
64368;BME280;50692;53.314;-6.300;2023-07-31T07:28:41;99775.00;;;17.43;90.98
64368;BME280;50692;53.314;-6.300;2023-07-31T07:31:28;99781.19;;;17.44;91.15
64368;BME280;50692;53.314;-6.300;2023-07-31T07:34:14;99775.91;;;17.34;91.07
64368;BME280;50692;53.314;-6.300;2023-07-31T07:36:59;99770.97;;;17.30;91.89
64368;BME280;50692;53.314;-6.300;2023-07-31T07:39:45;99775.19;;;17.32;92.24
64368;BME280;50692;53.314;-6.300;2023-07-31T07:42:31;99767.75;;;17.26;93.17
64368;BME280;50692;53.314;-6.300;2023-07-31T07:45:17;99763.41;;;17.25;93.67
64368;BME280;50692;53.314;-6.300;2023-07-31T07:48:03;99754.56;;;17.24;93.77
64368;BME280;50692;53.314;-6.300;2023-07-31T07:50:49;99749.78;;;17.28;94.11
64368;BME280;50692;53.314;-6.300;2023-07-31T07:53:34;99748.84;;;17.19;94.45
64368;BME280;50692;53.314;-6.300;2023-07-31T07:56:20;99744.88;;;17.23;94.55
64368;BME280;50692;53.314;-6.300;2023-07-31T07:59:06;99739.38;;;17.25;94.62
64368;BME280;50692;53.314;-6.300;2023-07-31T08:01:52;99733.72;;;17.38;93.88
64368;BME280;50692;53.314;-6.300;2023-07-31T08:04:38;99737.81;;;17.32;94.30
64368;BME280;50692;53.314;-6.300;2023-07-31T08:07:24;99743.56;;;17.37;94.45
64368;BME280;50692;53.314;-6.300;2023-07-31T08:10:10;99747.66;;;17.32;94.38
64368;BME280;50692;53.314;-6.300;2023-07-31T08:12:55;99754.00;;;17.31;93.89
64368;BME280;50692;53.314;-6.300;2023-07-31T08:15:41;99745.56;;;17.25;93.51
64368;BME280;50692;53.314;-6.300;2023-07-31T08:18:28;99760.47;;;17.28;93.05
64368;BME280;50692;53.314;-6.300;2023-07-31T08:21:14;99775.91;;;17.34;93.19
64368;BME280;50692;53.314;-6.300;2023-07-31T08:24:00;99790.09;;;17.35;92.71
64368;BME280;50692;53.314;-6.300;2023-07-31T08:26:46;99776.75;;;17.35;92.38
64368;BME280;50692;53.314;-6.300;2023-07-31T08:29:32;99800.34;;;17.30;91.56
64368;BME280;50692;53.314;-6.300;2023-07-31T08:32:18;99810.91;;;17.31;90.82
64368;BME280;50692;53.314;-6.300;2023-07-31T08:35:04;99803.75;;;17.22;90.34
64368;BME280;50692;53.314;-6.300;2023-07-31T08:37:50;99802.25;;;17.19;90.70
64368;BME280;50692;53.314;-6.300;2023-07-31T08:40:36;99788.03;;;17.19;90.68
64368;BME280;50692;53.314;-6.300;2023-07-31T08:43:27;99777.41;;;17.09;90.42
64368;BME280;50692;53.314;-6.300;2023-07-31T08:46:13;99789.44;;;17.23;90.41
64368;BME280;50692;53.314;-6.300;2023-07-31T08:49:04;99784.66;;;17.26;90.39
64368;BME280;50692;53.314;-6.300;2023-07-31T08:51:52;99778.88;;;17.31;90.49
64368;BME280;50692;53.314;-6.300;2023-07-31T08:54:38;99769.94;;;17.40;90.16
64368;BME280;50692;53.314;-6.300;2023-07-31T08:57:23;99765.16;;;17.44;89.53
64368;BME280;50692;53.314;-6.300;2023-07-31T09:00:10;99754.88;;;17.49;88.69
64368;BME280;50692;53.314;-6.300;2023-07-31T09:03:02;99750.53;;;17.48;88.24
64368;BME280;50692;53.314;-6.300;2023-07-31T09:05:49;99748.25;;;17.53;88.63
64368;BME280;50692;53.314;-6.300;2023-07-31T09:08:37;99754.41;;;17.54;88.69
64368;BME280;50692;53.314;-6.300;2023-07-31T09:11:27;99746.03;;;17.48;88.46
64368;BME280;50692;53.314;-6.300;2023-07-31T09:14:14;99733.50;;;17.49;88.43
64368;BME280;50692;53.314;-6.300;2023-07-31T09:17:01;99739.75;;;17.58;88.33
64368;BME280;50692;53.314;-6.300;2023-07-31T09:19:47;99763.59;;;17.69;88.22
64368;BME280;50692;53.314;-6.300;2023-07-31T09:22:34;99763.75;;;17.67;87.96
64368;BME280;50692;53.314;-6.300;2023-07-31T09:25:26;99752.69;;;17.62;87.15
64368;BME280;50692;53.314;-6.300;2023-07-31T09:28:12;99771.00;;;17.57;88.07
64368;BME280;50692;53.314;-6.300;2023-07-31T09:30:57;99783.69;;;17.55;87.57
64368;BME280;50692;53.314;-6.300;2023-07-31T09:33:55;99784.38;;;17.47;88.37
64368;BME280;50692;53.314;-6.300;2023-07-31T09:36:51;99780.06;;;17.46;88.45
64368;BME280;50692;53.314;-6.300;2023-07-31T09:39:46;99791.00;;;17.53;89.26
64368;BME280;50692;53.314;-6.300;2023-07-31T09:42:34;99805.47;;;17.50;89.03
64368;BME280;50692;53.314;-6.300;2023-07-31T09:45:19;99788.50;;;17.42;89.11
64368;BME280;50692;53.314;-6.300;2023-07-31T09:48:10;99803.25;;;17.46;89.24
64368;BME280;50692;53.314;-6.300;2023-07-31T09:51:04;99796.81;;;17.39;89.33
64368;BME280;50692;53.314;-6.300;2023-07-31T09:53:50;99792.22;;;17.31;89.43
64368;BME280;50692;53.314;-6.300;2023-07-31T09:56:37;99794.59;;;17.34;89.91
64368;BME280;50692;53.314;-6.300;2023-07-31T09:59:24;99793.44;;;17.37;90.09
64368;BME280;50692;53.314;-6.300;2023-07-31T10:02:14;99788.81;;;17.39;90.01
64368;BME280;50692;53.314;-6.300;2023-07-31T10:05:02;99772.19;;;17.45;90.42
64368;BME280;50692;53.314;-6.300;2023-07-31T10:07:54;99774.97;;;17.53;91.02
64368;BME280;50692;53.314;-6.300;2023-07-31T10:10:44;99768.63;;;17.54;91.00
64368;BME280;50692;53.314;-6.300;2023-07-31T10:13:30;99769.66;;;17.43;91.01
64368;BME280;50692;53.314;-6.300;2023-07-31T10:16:17;99756.47;;;17.42;91.54
64368;BME280;50692;53.314;-6.300;2023-07-31T10:19:05;99769.72;;;17.34;91.10
64368;BME280;50692;53.314;-6.300;2023-07-31T10:21:51;99758.28;;;17.41;90.62
64368;BME280;50692;53.314;-6.300;2023-07-31T10:24:38;99752.91;;;17.23;91.77
64368;BME280;50692;53.314;-6.300;2023-07-31T10:27:24;99754.97;;;17.57;90.20
64368;BME280;50692;53.314;-6.300;2023-07-31T10:30:18;99767.16;;;17.69;90.33
64368;BME280;50692;53.314;-6.300;2023-07-31T10:33:05;99775.34;;;17.31;93.23
64368;BME280;50692;53.314;-6.300;2023-07-31T10:36:16;99772.00;;;17.19;94.41
64368;BME280;50692;53.314;-6.300;2023-07-31T10:39:04;99777.91;;;17.22;94.80
64368;BME280;50692;53.314;-6.300;2023-07-31T10:41:50;99784.41;;;17.20;94.91
64368;BME280;50692;53.314;-6.300;2023-07-31T10:44:35;99782.94;;;17.25;95.33
64368;BME280;50692;53.314;-6.300;2023-07-31T10:47:21;99788.19;;;17.17;95.62
64368;BME280;50692;53.314;-6.300;2023-07-31T10:52:57;99767.91;;;17.24;95.88
64368;BME280;50692;53.314;-6.300;2023-07-31T10:55:50;99768.47;;;17.28;95.90
64368;BME280;50692;53.314;-6.300;2023-07-31T10:58:43;99766.19;;;17.33;95.61
64368;BME280;50692;53.314;-6.300;2023-07-31T11:01:49;99753.38;;;17.37;94.74
64368;BME280;50692;53.314;-6.300;2023-07-31T11:04:35;99755.34;;;17.44;94.29
64368;BME280;50692;53.314;-6.300;2023-07-31T11:07:21;99756.50;;;17.60;93.97
64368;BME280;50692;53.314;-6.300;2023-07-31T11:10:07;99751.69;;;17.63;93.51
64368;BME280;50692;53.314;-6.300;2023-07-31T11:12:54;99754.44;;;17.71;93.28
64368;BME280;50692;53.314;-6.300;2023-07-31T11:15:39;99750.78;;;17.72;92.83
64368;BME280;50692;53.314;-6.300;2023-07-31T11:18:26;99764.59;;;17.78;92.07
64368;BME280;50692;53.314;-6.300;2023-07-31T11:21:23;99746.97;;;17.75;91.81
64368;BME280;50692;53.314;-6.300;2023-07-31T11:24:08;99742.97;;;17.89;91.19
64368;BME280;50692;53.314;-6.300;2023-07-31T11:26:54;99753.66;;;17.89;90.75
64368;BME280;50692;53.314;-6.300;2023-07-31T11:29:40;99763.59;;;17.79;90.05
64368;BME280;50692;53.314;-6.300;2023-07-31T11:32:26;99753.66;;;17.89;91.12
64368;BME280;50692;53.314;-6.300;2023-07-31T11:35:12;99747.50;;;17.88;90.41
64368;BME280;50692;53.314;-6.300;2023-07-31T11:37:58;99723.91;;;17.84;90.39
64368;BME280;50692;53.314;-6.300;2023-07-31T11:40:45;99756.13;;;18.00;89.83
64368;BME280;50692;53.314;-6.300;2023-07-31T11:43:31;99734.34;;;18.13;90.25
64368;BME280;50692;53.314;-6.300;2023-07-31T11:46:17;99742.38;;;18.13;89.91
64368;BME280;50692;53.314;-6.300;2023-07-31T11:49:05;99731.50;;;18.14;91.53
64368;BME280;50692;53.314;-6.300;2023-07-31T11:51:51;99749.31;;;18.24;90.78
64368;BME280;50692;53.314;-6.300;2023-07-31T11:54:37;99712.78;;;18.14;90.06
64368;BME280;50692;53.314;-6.300;2023-07-31T11:57:23;99761.22;;;18.29;89.83
64368;BME280;50692;53.314;-6.300;2023-07-31T12:00:10;99747.16;;;18.45;88.08
64368;BME280;50692;53.314;-6.300;2023-07-31T12:02:58;99754.53;;;18.51;87.13
64368;BME280;50692;53.314;-6.300;2023-07-31T12:05:44;99741.91;;;18.61;87.75
64368;BME280;50692;53.314;-6.300;2023-07-31T12:08:32;99746.91;;;18.74;87.97
64368;BME280;50692;53.314;-6.300;2023-07-31T12:11:18;99745.47;;;18.88;88.42
64368;BME280;50692;53.314;-6.300;2023-07-31T12:14:04;99742.88;;;19.04;88.08
64368;BME280;50692;53.314;-6.300;2023-07-31T12:16:58;99732.47;;;19.35;87.53
64368;BME280;50692;53.314;-6.300;2023-07-31T12:19:44;99721.16;;;19.50;85.32
64368;BME280;50692;53.314;-6.300;2023-07-31T12:22:30;99708.25;;;19.53;83.34
64368;BME280;50692;53.314;-6.300;2023-07-31T12:25:16;99704.22;;;19.49;82.18
64368;BME280;50692;53.314;-6.300;2023-07-31T12:28:06;99699.94;;;19.64;82.02
64368;BME280;50692;53.314;-6.300;2023-07-31T12:30:58;99692.72;;;19.65;80.72
64368;BME280;50692;53.314;-6.300;2023-07-31T12:33:49;99685.72;;;20.05;80.71
64368;BME280;50692;53.314;-6.300;2023-07-31T12:36:35;99679.88;;;20.26;79.11
64368;BME280;50692;53.314;-6.300;2023-07-31T12:39:21;99684.06;;;21.08;78.75
64368;BME280;50692;53.314;-6.300;2023-07-31T12:42:07;99677.03;;;21.70;75.86
64368;BME280;50692;53.314;-6.300;2023-07-31T12:44:53;99673.59;;;22.07;73.13
64368;BME280;50692;53.314;-6.300;2023-07-31T12:47:39;99666.19;;;22.47;71.47
64368;BME280;50692;53.314;-6.300;2023-07-31T12:50:25;99658.22;;;22.83;68.40
64368;BME280;50692;53.314;-6.300;2023-07-31T12:53:11;99654.53;;;23.14;65.93
64368;BME280;50692;53.314;-6.300;2023-07-31T12:55:57;99664.44;;;23.28;65.62
64368;BME280;50692;53.314;-6.300;2023-07-31T12:58:43;99643.63;;;23.22;65.02
64368;BME280;50692;53.314;-6.300;2023-07-31T13:01:28;99649.13;;;23.50;64.36
64368;BME280;50692;53.314;-6.300;2023-07-31T13:04:14;99642.88;;;23.86;64.29
64368;BME280;50692;53.314;-6.300;2023-07-31T13:07:00;99648.38;;;23.99;61.86
64368;BME280;50692;53.314;-6.300;2023-07-31T13:09:46;99640.66;;;23.96;61.23
64368;BME280;50692;53.314;-6.300;2023-07-31T13:12:32;99637.97;;;23.53;61.24
64368;BME280;50692;53.314;-6.300;2023-07-31T13:15:18;99645.09;;;23.10;61.84
64368;BME280;50692;53.314;-6.300;2023-07-31T13:18:04;99643.94;;;22.97;62.54
64368;BME280;50692;53.314;-6.300;2023-07-31T13:20:50;99641.59;;;22.65;62.82
64368;BME280;50692;53.314;-6.300;2023-07-31T13:23:35;99634.53;;;22.64;62.17
64368;BME280;50692;53.314;-6.300;2023-07-31T13:26:21;99632.38;;;22.74;60.95
64368;BME280;50692;53.314;-6.300;2023-07-31T13:29:07;99618.19;;;23.31;59.87
64368;BME280;50692;53.314;-6.300;2023-07-31T13:31:53;99613.56;;;23.61;59.45
64368;BME280;50692;53.314;-6.300;2023-07-31T13:34:38;99605.25;;;24.06;58.34
64368;BME280;50692;53.314;-6.300;2023-07-31T13:37:24;99599.91;;;24.12;55.57
64368;BME280;50692;53.314;-6.300;2023-07-31T13:40:10;99607.94;;;23.63;56.51
64368;BME280;50692;53.314;-6.300;2023-07-31T13:42:56;99616.53;;;23.30;58.25
64368;BME280;50692;53.314;-6.300;2023-07-31T13:45:42;99609.63;;;23.42;57.79
64368;BME280;50692;53.314;-6.300;2023-07-31T13:48:28;99613.16;;;23.43;57.88
64368;BME280;50692;53.314;-6.300;2023-07-31T13:51:14;99613.53;;;23.04;58.69
64368;BME280;50692;53.314;-6.300;2023-07-31T13:54:01;99615.19;;;22.90;59.93
64368;BME280;50692;53.314;-6.300;2023-07-31T13:56:47;99615.75;;;22.56;65.72
64368;BME280;50692;53.314;-6.300;2023-07-31T13:59:33;99619.31;;;21.80;70.90
64368;BME280;50692;53.314;-6.300;2023-07-31T14:02:18;99619.25;;;21.43;75.48
64368;BME280;50692;53.314;-6.300;2023-07-31T14:05:04;99611.66;;;21.15;76.72
64368;BME280;50692;53.314;-6.300;2023-07-31T14:07:50;99617.00;;;20.84;77.81
64368;BME280;50692;53.314;-6.300;2023-07-31T14:10:36;99629.66;;;20.59;78.47
64368;BME280;50692;53.314;-6.300;2023-07-31T14:13:22;99615.59;;;20.57;77.54
64368;BME280;50692;53.314;-6.300;2023-07-31T14:16:08;99628.69;;;20.60;77.15
64368;BME280;50692;53.314;-6.300;2023-07-31T14:18:54;99620.28;;;20.63;75.53
64368;BME280;50692;53.314;-6.300;2023-07-31T14:21:40;99627.25;;;20.80;73.79
64368;BME280;50692;53.314;-6.300;2023-07-31T14:24:26;99621.97;;;21.03;73.24
64368;BME280;50692;53.314;-6.300;2023-07-31T14:27:12;99611.44;;;21.79;72.46
64368;BME280;50692;53.314;-6.300;2023-07-31T14:29:57;99643.69;;;22.25;69.73
64368;BME280;50692;53.314;-6.300;2023-07-31T14:32:44;99624.53;;;22.20;67.25
64368;BME280;50692;53.314;-6.300;2023-07-31T14:35:29;99623.16;;;22.24;68.43
64368;BME280;50692;53.314;-6.300;2023-07-31T14:38:15;99616.44;;;22.58;65.87
64368;BME280;50692;53.314;-6.300;2023-07-31T14:41:01;99625.13;;;22.60;65.94